sensor_id;sensor_type;location;lat;lon;timestamp;temperature;humidity
19864;DHT22;10094;48.820;9.226;2023-04-25T00:04:44;10.50;99.90
19864;DHT22;10094;48.820;9.226;2023-04-25T00:11:27;10.50;99.90
19864;DHT22;10094;48.820;9.226;2023-04-25T00:18:09;10.50;99.90
19864;DHT22;10094;48.820;9.226;2023-04-25T00:24:53;10.50;99.90
19864;DHT22;10094;48.820;9.226;2023-04-25T00:31:38;10.50;99.90
19864;DHT22;10094;48.820;9.226;2023-04-25T00:38:21;10.50;99.90
19864;DHT22;10094;48.820;9.226;2023-04-25T00:45:05;10.40;99.90
19864;DHT22;10094;48.820;9.226;2023-04-25T00:51:49;10.50;99.90
19864;DHT22;10094;48.820;9.226;2023-04-25T00:58:32;10.40;99.90
19864;DHT22;10094;48.820;9.226;2023-04-25T01:05:14;10.30;99.90
19864;DHT22;10094;48.820;9.226;2023-04-25T01:11:56;10.30;99.90
19864;DHT22;10094;48.820;9.226;2023-04-25T01:18:40;10.30;99.90
19864;DHT22;10094;48.820;9.226;2023-04-25T01:25:23;10.30;99.90
19864;DHT22;10094;48.820;9.226;2023-04-25T01:32:06;10.40;99.90
19864;DHT22;10094;48.820;9.226;2023-04-25T01:38:49;10.50;99.90
19864;DHT22;10094;48.820;9.226;2023-04-25T01:45:32;10.40;99.90
19864;DHT22;10094;48.820;9.226;2023-04-25T01:52:15;10.30;99.90
19864;DHT22;10094;48.820;9.226;2023-04-25T01:58:58;10.30;99.90
19864;DHT22;10094;48.820;9.226;2023-04-25T02:06:06;10.30;99.90
19864;DHT22;10094;48.820;9.226;2023-04-25T02:12:53;10.30;99.90
19864;DHT22;10094;48.820;9.226;2023-04-25T02:19:43;10.30;99.90
19864;DHT22;10094;48.820;9.226;2023-04-25T02:26:25;10.40;99.90
19864;DHT22;10094;48.820;9.226;2023-04-25T02:33:08;10.40;99.90
19864;DHT22;10094;48.820;9.226;2023-04-25T02:39:51;10.20;99.90
19864;DHT22;10094;48.820;9.226;2023-04-25T02:46:33;10.10;99.90
19864;DHT22;10094;48.820;9.226;2023-04-25T02:53:21;10.10;99.90
19864;DHT22;10094;48.820;9.226;2023-04-25T03:00:06;10.10;99.90
19864;DHT22;10094;48.820;9.226;2023-04-25T03:06:50;10.20;99.90
19864;DHT22;10094;48.820;9.226;2023-04-25T03:13:35;10.30;99.90
19864;DHT22;10094;48.820;9.226;2023-04-25T03:20:17;10.30;99.90
19864;DHT22;10094;48.820;9.226;2023-04-25T03:27:00;10.40;99.90
19864;DHT22;10094;48.820;9.226;2023-04-25T03:33:42;10.30;99.90
19864;DHT22;10094;48.820;9.226;2023-04-25T03:40:25;10.20;99.90
19864;DHT22;10094;48.820;9.226;2023-04-25T03:47:24;10.10;99.90
19864;DHT22;10094;48.820;9.226;2023-04-25T03:54:09;10.20;99.90
19864;DHT22;10094;48.820;9.226;2023-04-25T04:00:54;10.20;99.90
19864;DHT22;10094;48.820;9.226;2023-04-25T04:07:37;10.20;99.90
19864;DHT22;10094;48.820;9.226;2023-04-25T04:14:24;10.10;99.90
19864;DHT22;10094;48.820;9.226;2023-04-25T04:21:06;9.90;99.90
19864;DHT22;10094;48.820;9.226;2023-04-25T04:27:53;9.90;99.90
19864;DHT22;10094;48.820;9.226;2023-04-25T04:34:42;9.90;99.90
19864;DHT22;10094;48.820;9.226;2023-04-25T04:41:27;9.90;99.90
19864;DHT22;10094;48.820;9.226;2023-04-25T04:48:44;10.00;99.90
19864;DHT22;10094;48.820;9.226;2023-04-25T04:55:29;10.20;99.90
19864;DHT22;10094;48.820;9.226;2023-04-25T05:02:32;10.20;99.90
19864;DHT22;10094;48.820;9.226;2023-04-25T05:09:36;10.30;99.90
19864;DHT22;10094;48.820;9.226;2023-04-25T05:16:18;10.30;99.90
19864;DHT22;10094;48.820;9.226;2023-04-25T05:23:06;10.40;99.90
19864;DHT22;10094;48.820;9.226;2023-04-25T05:30:08;10.60;99.90
19864;DHT22;10094;48.820;9.226;2023-04-25T05:37:06;10.70;99.90
19864;DHT22;10094;48.820;9.226;2023-04-25T05:43:55;10.70;99.90
19864;DHT22;10094;48.820;9.226;2023-04-25T05:50:58;10.40;99.90
19864;DHT22;10094;48.820;9.226;2023-04-25T05:57:55;10.40;99.90
19864;DHT22;10094;48.820;9.226;2023-04-25T06:04:38;10.40;99.90
19864;DHT22;10094;48.820;9.226;2023-04-25T06:11:21;10.60;99.90
19864;DHT22;10094;48.820;9.226;2023-04-25T06:18:03;10.70;99.90
19864;DHT22;10094;48.820;9.226;2023-04-25T06:24:46;10.80;99.90
19864;DHT22;10094;48.820;9.226;2023-04-25T06:31:28;10.80;99.90
19864;DHT22;10094;48.820;9.226;2023-04-25T06:38:11;10.90;99.90
19864;DHT22;10094;48.820;9.226;2023-04-25T06:44:56;11.70;99.90
19864;DHT22;10094;48.820;9.226;2023-04-25T06:51:40;12.50;99.90
19864;DHT22;10094;48.820;9.226;2023-04-25T06:58:23;12.70;99.90
19864;DHT22;10094;48.820;9.226;2023-04-25T07:05:15;13.20;99.90
19864;DHT22;10094;48.820;9.226;2023-04-25T07:12:01;13.10;99.90
19864;DHT22;10094;48.820;9.226;2023-04-25T07:18:43;12.90;99.90
19864;DHT22;10094;48.820;9.226;2023-04-25T07:25:26;12.40;99.90
19864;DHT22;10094;48.820;9.226;2023-04-25T07:32:10;12.20;99.90
19864;DHT22;10094;48.820;9.226;2023-04-25T07:38:57;12.10;99.90
19864;DHT22;10094;48.820;9.226;2023-04-25T07:45:39;11.70;99.90
19864;DHT22;10094;48.820;9.226;2023-04-25T07:52:22;11.70;99.90
19864;DHT22;10094;48.820;9.226;2023-04-25T07:59:10;11.50;99.90
19864;DHT22;10094;48.820;9.226;2023-04-25T08:05:55;11.40;99.90
19864;DHT22;10094;48.820;9.226;2023-04-25T08:12:40;11.40;99.90
19864;DHT22;10094;48.820;9.226;2023-04-25T08:19:23;11.50;99.90
19864;DHT22;10094;48.820;9.226;2023-04-25T08:26:06;11.50;99.90
19864;DHT22;10094;48.820;9.226;2023-04-25T08:32:52;11.30;99.90
19864;DHT22;10094;48.820;9.226;2023-04-25T08:40:04;11.10;99.90
19864;DHT22;10094;48.820;9.226;2023-04-25T08:46:59;10.90;99.90
19864;DHT22;10094;48.820;9.226;2023-04-25T08:53:49;11.10;99.90
19864;DHT22;10094;48.820;9.226;2023-04-25T09:00:39;10.90;99.90
19864;DHT22;10094;48.820;9.226;2023-04-25T09:07:21;10.90;99.90
19864;DHT22;10094;48.820;9.226;2023-04-25T09:21:22;10.70;99.90
19864;DHT22;10094;48.820;9.226;2023-04-25T09:28:06;10.40;99.90
19864;DHT22;10094;48.820;9.226;2023-04-25T09:34:50;10.40;99.90
19864;DHT22;10094;48.820;9.226;2023-04-25T09:41:37;10.30;99.90
19864;DHT22;10094;48.820;9.226;2023-04-25T09:48:22;10.40;99.90
19864;DHT22;10094;48.820;9.226;2023-04-25T09:55:07;10.40;99.90
19864;DHT22;10094;48.820;9.226;2023-04-25T10:01:50;10.30;99.90
19864;DHT22;10094;48.820;9.226;2023-04-25T10:08:43;10.20;99.90
19864;DHT22;10094;48.820;9.226;2023-04-25T10:15:26;9.90;99.90
19864;DHT22;10094;48.820;9.226;2023-04-25T10:22:26;9.80;99.90
19864;DHT22;10094;48.820;9.226;2023-04-25T10:29:11;9.80;99.90
19864;DHT22;10094;48.820;9.226;2023-04-25T10:35:58;9.50;99.90
19864;DHT22;10094;48.820;9.226;2023-04-25T10:42:41;9.70;99.90
19864;DHT22;10094;48.820;9.226;2023-04-25T10:49:42;9.40;99.90
19864;DHT22;10094;48.820;9.226;2023-04-25T10:56:32;8.90;99.90
19864;DHT22;10094;48.820;9.226;2023-04-25T11:03:16;8.70;99.90
19864;DHT22;10094;48.820;9.226;2023-04-25T11:10:02;8.80;99.90
19864;DHT22;10094;48.820;9.226;2023-04-25T11:16:46;9.20;99.90
19864;DHT22;10094;48.820;9.226;2023-04-25T11:23:30;9.60;99.90
19864;DHT22;10094;48.820;9.226;2023-04-25T11:30:16;10.10;99.90
19864;DHT22;10094;48.820;9.226;2023-04-25T11:37:00;10.70;99.90
19864;DHT22;10094;48.820;9.226;2023-04-25T11:43:43;11.00;99.90
19864;DHT22;10094;48.820;9.226;2023-04-25T11:50:28;11.30;99.90
19864;DHT22;10094;48.820;9.226;2023-04-25T11:57:11;11.20;99.90
19864;DHT22;10094;48.820;9.226;2023-04-25T12:03:53;11.10;99.90
19864;DHT22;10094;48.820;9.226;2023-04-25T12:10:41;11.80;99.90
19864;DHT22;10094;48.820;9.226;2023-04-25T12:17:23;12.00;99.90
19864;DHT22;10094;48.820;9.226;2023-04-25T12:24:22;11.70;99.90
19864;DHT22;10094;48.820;9.226;2023-04-25T12:31:09;11.20;99.90
19864;DHT22;10094;48.820;9.226;2023-04-25T12:37:52;11.10;99.90
19864;DHT22;10094;48.820;9.226;2023-04-25T12:44:34;11.00;99.90
19864;DHT22;10094;48.820;9.226;2023-04-25T12:51:17;11.40;99.90
19864;DHT22;10094;48.820;9.226;2023-04-25T12:57:59;12.00;99.90
19864;DHT22;10094;48.820;9.226;2023-04-25T13:04:41;12.70;99.90
19864;DHT22;10094;48.820;9.226;2023-04-25T13:11:24;13.30;99.90
19864;DHT22;10094;48.820;9.226;2023-04-25T13:18:06;13.10;99.90
19864;DHT22;10094;48.820;9.226;2023-04-25T13:24:49;12.90;99.90
19864;DHT22;10094;48.820;9.226;2023-04-25T13:31:31;13.20;99.90
19864;DHT22;10094;48.820;9.226;2023-04-25T13:38:13;13.80;99.90
19864;DHT22;10094;48.820;9.226;2023-04-25T13:44:56;13.50;99.90
19864;DHT22;10094;48.820;9.226;2023-04-25T13:51:38;13.30;99.90
19864;DHT22;10094;48.820;9.226;2023-04-25T13:58:20;13.30;99.90
19864;DHT22;10094;48.820;9.226;2023-04-25T14:05:06;13.80;99.90
19864;DHT22;10094;48.820;9.226;2023-04-25T14:11:49;14.20;99.90
19864;DHT22;10094;48.820;9.226;2023-04-25T14:18:31;13.70;99.90
19864;DHT22;10094;48.820;9.226;2023-04-25T14:25:14;13.30;99.90
19864;DHT22;10094;48.820;9.226;2023-04-25T14:31:56;13.90;99.90
19864;DHT22;10094;48.820;9.226;2023-04-25T14:38:40;13.90;99.90
19864;DHT22;10094;48.820;9.226;2023-04-25T14:45:22;13.50;99.90
19864;DHT22;10094;48.820;9.226;2023-04-25T14:52:04;13.70;99.90
19864;DHT22;10094;48.820;9.226;2023-04-25T14:58:47;13.70;99.90
19864;DHT22;10094;48.820;9.226;2023-04-25T15:05:29;13.20;99.90
19864;DHT22;10094;48.820;9.226;2023-04-25T15:12:12;13.40;99.90
19864;DHT22;10094;48.820;9.226;2023-04-25T15:18:54;13.40;99.90
19864;DHT22;10094;48.820;9.226;2023-04-25T15:25:36;13.30;99.90
19864;DHT22;10094;48.820;9.226;2023-04-25T15:32:19;13.60;99.90
19864;DHT22;10094;48.820;9.226;2023-04-25T15:39:03;14.00;99.90
19864;DHT22;10094;48.820;9.226;2023-04-25T15:45:46;13.50;99.90
19864;DHT22;10094;48.820;9.226;2023-04-25T15:52:28;13.20;99.90
19864;DHT22;10094;48.820;9.226;2023-04-25T15:59:11;13.20;99.90
19864;DHT22;10094;48.820;9.226;2023-04-25T16:05:53;12.90;99.90
19864;DHT22;10094;48.820;9.226;2023-04-25T16:12:36;12.80;99.90
19864;DHT22;10094;48.820;9.226;2023-04-25T16:19:22;13.00;99.90
19864;DHT22;10094;48.820;9.226;2023-04-25T16:26:04;12.70;99.90
19864;DHT22;10094;48.820;9.226;2023-04-25T16:32:47;12.70;99.90
19864;DHT22;10094;48.820;9.226;2023-04-25T16:39:30;12.70;99.90
19864;DHT22;10094;48.820;9.226;2023-04-25T16:46:12;12.50;99.90
19864;DHT22;10094;48.820;9.226;2023-04-25T16:52:54;12.50;99.90
19864;DHT22;10094;48.820;9.226;2023-04-25T16:59:37;12.40;99.90
19864;DHT22;10094;48.820;9.226;2023-04-25T17:06:20;12.30;99.90
19864;DHT22;10094;48.820;9.226;2023-04-25T17:13:02;12.10;99.90
19864;DHT22;10094;48.820;9.226;2023-04-25T17:19:45;11.80;99.90
19864;DHT22;10094;48.820;9.226;2023-04-25T17:26:27;11.70;99.90
19864;DHT22;10094;48.820;9.226;2023-04-25T17:33:10;11.50;99.90
19864;DHT22;10094;48.820;9.226;2023-04-25T17:39:52;11.40;99.90
19864;DHT22;10094;48.820;9.226;2023-04-25T17:46:34;11.20;99.90
19864;DHT22;10094;48.820;9.226;2023-04-25T17:53:17;10.50;99.90
19864;DHT22;10094;48.820;9.226;2023-04-25T17:59:59;9.70;99.90
19864;DHT22;10094;48.820;9.226;2023-04-25T18:06:42;9.40;99.90
19864;DHT22;10094;48.820;9.226;2023-04-25T18:13:25;9.40;99.90
19864;DHT22;10094;48.820;9.226;2023-04-25T18:20:12;9.50;99.90
19864;DHT22;10094;48.820;9.226;2023-04-25T18:26:57;9.50;99.90
19864;DHT22;10094;48.820;9.226;2023-04-25T18:33:41;9.50;99.90
19864;DHT22;10094;48.820;9.226;2023-04-25T18:40:24;9.50;99.90
19864;DHT22;10094;48.820;9.226;2023-04-25T18:47:09;9.40;99.90
19864;DHT22;10094;48.820;9.226;2023-04-25T18:53:54;9.60;99.90
19864;DHT22;10094;48.820;9.226;2023-04-25T19:00:37;9.60;99.90
19864;DHT22;10094;48.820;9.226;2023-04-25T19:07:20;9.50;99.90
19864;DHT22;10094;48.820;9.226;2023-04-25T19:14:03;9.50;99.90
19864;DHT22;10094;48.820;9.226;2023-04-25T19:20:45;9.60;99.90
19864;DHT22;10094;48.820;9.226;2023-04-25T19:27:28;9.60;99.90
19864;DHT22;10094;48.820;9.226;2023-04-25T19:34:11;9.60;99.90
19864;DHT22;10094;48.820;9.226;2023-04-25T19:40:54;9.60;99.90
19864;DHT22;10094;48.820;9.226;2023-04-25T19:47:36;9.40;99.90
19864;DHT22;10094;48.820;9.226;2023-04-25T19:54:21;9.40;99.90
19864;DHT22;10094;48.820;9.226;2023-04-25T20:01:04;9.30;99.90
19864;DHT22;10094;48.820;9.226;2023-04-25T20:07:47;9.20;99.90
19864;DHT22;10094;48.820;9.226;2023-04-25T20:14:30;9.30;99.90
19864;DHT22;10094;48.820;9.226;2023-04-25T20:21:15;9.30;99.90
19864;DHT22;10094;48.820;9.226;2023-04-25T20:27:58;9.30;99.90
19864;DHT22;10094;48.820;9.226;2023-04-25T20:34:40;9.40;99.90
19864;DHT22;10094;48.820;9.226;2023-04-25T20:41:23;9.30;99.90
19864;DHT22;10094;48.820;9.226;2023-04-25T20:48:05;9.40;99.90
19864;DHT22;10094;48.820;9.226;2023-04-25T20:54:48;9.40;99.90
19864;DHT22;10094;48.820;9.226;2023-04-25T21:01:31;9.30;99.90
19864;DHT22;10094;48.820;9.226;2023-04-25T21:08:14;9.30;99.90
19864;DHT22;10094;48.820;9.226;2023-04-25T21:14:56;9.40;99.90
19864;DHT22;10094;48.820;9.226;2023-04-25T21:21:38;9.30;99.90
19864;DHT22;10094;48.820;9.226;2023-04-25T21:28:21;9.30;99.90
19864;DHT22;10094;48.820;9.226;2023-04-25T21:35:04;9.40;99.90
19864;DHT22;10094;48.820;9.226;2023-04-25T21:41:47;9.40;99.90
19864;DHT22;10094;48.820;9.226;2023-04-25T21:48:30;9.40;99.90
19864;DHT22;10094;48.820;9.226;2023-04-25T21:55:13;9.20;99.90
19864;DHT22;10094;48.820;9.226;2023-04-25T22:01:56;9.00;99.90
19864;DHT22;10094;48.820;9.226;2023-04-25T22:08:38;9.10;99.90
19864;DHT22;10094;48.820;9.226;2023-04-25T22:15:21;9.10;99.90
19864;DHT22;10094;48.820;9.226;2023-04-25T22:22:05;9.00;99.90
19864;DHT22;10094;48.820;9.226;2023-04-25T22:28:47;9.00;99.90
19864;DHT22;10094;48.820;9.226;2023-04-25T22:35:30;9.00;99.90
19864;DHT22;10094;48.820;9.226;2023-04-25T22:42:12;9.20;99.90
19864;DHT22;10094;48.820;9.226;2023-04-25T22:48:55;9.20;99.90
19864;DHT22;10094;48.820;9.226;2023-04-25T22:55:37;9.20;99.90
19864;DHT22;10094;48.820;9.226;2023-04-25T23:02:21;9.20;99.90
19864;DHT22;10094;48.820;9.226;2023-04-25T23:09:04;9.20;99.90
19864;DHT22;10094;48.820;9.226;2023-04-25T23:15:47;9.00;99.90
19864;DHT22;10094;48.820;9.226;2023-04-25T23:22:29;9.10;99.90
19864;DHT22;10094;48.820;9.226;2023-04-25T23:29:12;9.00;99.90
19864;DHT22;10094;48.820;9.226;2023-04-25T23:35:54;8.80;99.90
19864;DHT22;10094;48.820;9.226;2023-04-25T23:42:37;8.70;99.90
19864;DHT22;10094;48.820;9.226;2023-04-25T23:49:20;8.60;99.90
19864;DHT22;10094;48.820;9.226;2023-04-25T23:56:03;8.50;99.90
